This is the latest recevied weather packets stored in our database for station/object KN6ZYR. If no packets are shown the sender has not sent any weather packets the latest 10 day(s).
| Time | Temp. | Humidity | Pressure | Rain* | Wind** | Luminosity | Snow |
|---|---|---|---|---|---|---|---|
| 1777233369 | 16.11° C | 29% | 1011.3 hPa | 0 mm | - | 1099 W/m² | - |
| 1777233063 | 16.11° C | 38% | 1011.1 hPa | 0 mm | - | 491 W/m² | - |
| 1777232761 | 16.67° C | 32% | 1011.1 hPa | 0 mm | - | 879 W/m² | - |
| 1777232459 | 16.67° C | 35% | 1011.4 hPa | 0 mm | - | 658 W/m² | - |
| 1777232156 | 16.11° C | 31% | 1011.4 hPa | 0 mm | - | 928 W/m² | - |
| 1777231853 | 16.67° C | 33% | 1011.5 hPa | 0 mm | - | 320 W/m² | - |
| 1777231549 | 16.11° C | 33% | 1011.4 hPa | 0 mm | - | 1004 W/m² | - |
| 1777231246 | 15.56° C | 34% | 1011.4 hPa | 0 mm | - | 873 W/m² | - |
| 1777230942 | 15.56° C | 36% | 1011.6 hPa | 0 mm | - | 262 W/m² | - |
| 1777230638 | 16.11° C | 33% | 1011.6 hPa | 0 mm | - | 404 W/m² | - |
| 1777230333 | 16.11° C | 29% | 1011.5 hPa | 0 mm | - | 977 W/m² | - |
| 1777230031 | 16.11° C | 34% | 1011.6 hPa | 0 mm | - | 964 W/m² | - |
| 1777229727 | 15.56° C | 34% | 1011.6 hPa | 0 mm | - | 935 W/m² | - |
| 1777229424 | 16.11° C | 32% | 1011.5 hPa | 0 mm | - | 918 W/m² | - |
| 1777229121 | 16.11° C | 41% | 1011.6 hPa | 0 mm | - | 860 W/m² | - |
| 1777228818 | 15.56° C | 35% | 1011.7 hPa | 0 mm | - | 834 W/m² | - |
| 1777228514 | 15.56° C | 37% | 1011.6 hPa | 0 mm | - | 813 W/m² | - |
| 1777228210 | 15° C | 33% | 1011.7 hPa | 0 mm | - | 815 W/m² | - |
| 1777227908 | 14.44° C | 36% | 1011.7 hPa | 0 mm | - | 823 W/m² | - |
| 1777227605 | 15° C | 35% | 1011.6 hPa | 0 mm | - | 831 W/m² | - |
| 1777227300 | 15° C | 35% | 1011.6 hPa | 0 mm | - | 796 W/m² | - |
| 1777226998 | 15.56° C | 32% | 1011.5 hPa | 0 mm | - | 777 W/m² | - |
| 1777226695 | 15° C | 38% | 1011.6 hPa | 0 mm | - | 769 W/m² | - |
| 1777226392 | 15° C | 35% | 1011.6 hPa | 0 mm | - | 776 W/m² | - |
| 1777226088 | 15° C | 36% | 1011.5 hPa | 0 mm | - | 733 W/m² | - |
* Rain latest hour (hover to see other rain measurements)
** Current wind speed in m/s (hover to see current wind gust speed)